Time;durP1;ratioP1;P1;durP2;ratioP2;P2;SDS_P1;SDS_P2;PMS_P1;PMS_P2;Temp;Humidity;BMP_temperature;BMP_pressure;BME280_temperature;BME280_humidity;BME280_pressure;Samples;Min_cycle;Max_cycle;Signal;HPM_P1;HPM_P2
2021/07/30 00:02:26;;;;;;;7.87;3.90;;;19.10;99.90;;;;;;5075942;28;20252;-81
2021/07/30 00:04:54;;;;;;;11.73;4.33;;;19.10;99.90;;;;;;5059576;28;20181;-82
2021/07/30 00:07:20;;;;;;;10.37;4.30;;;19.10;99.90;;;;;;5052978;28;20594;-80
2021/07/30 00:09:46;;;;;;;9.30;3.77;;;18.90;99.90;;;;;;5069923;28;20176;-81
2021/07/30 00:12:11;;;;;;;11.50;4.40;;;18.80;99.90;;;;;;5076563;28;20645;-81
2021/07/30 00:14:37;;;;;;;8.37;4.30;;;18.80;99.90;;;;;;5076820;28;20217;-78
2021/07/30 00:17:03;;;;;;;10.63;4.47;;;18.70;99.90;;;;;;5076456;28;20637;-82
2021/07/30 00:19:28;;;;;;;11.60;3.93;;;18.60;99.90;;;;;;5086880;28;20173;-79
2021/07/30 00:21:55;;;;;;;10.90;4.43;;;18.70;99.90;;;;;;5089254;28;20202;-80
2021/07/30 00:24:21;;;;;;;11.47;4.43;;;18.70;99.90;;;;;;5086178;28;20216;-78
2021/07/30 00:26:48;;;;;;;11.17;4.20;;;18.60;99.90;;;;;;5092246;28;20183;-78
2021/07/30 00:29:14;;;;;;;9.50;4.37;;;18.50;99.90;;;;;;5080514;28;20165;-81
2021/07/30 00:31:40;;;;;;;9.53;4.43;;;18.40;99.90;;;;;;5068686;28;20162;-81
2021/07/30 00:34:05;;;;;;;10.00;3.83;;;18.50;99.90;;;;;;5053312;28;20284;-79
2021/07/30 00:36:31;;;;;;;8.97;4.27;;;18.50;99.90;;;;;;5053719;28;20617;-79
2021/07/30 00:38:57;;;;;;;9.57;3.77;;;18.50;99.90;;;;;;5053430;28;20358;-78
2021/07/30 00:41:23;;;;;;;10.03;3.90;;;18.60;99.90;;;;;;5053586;28;20177;-79
2021/07/30 00:43:49;;;;;;;7.07;4.00;;;18.70;99.90;;;;;;5056159;28;20654;-79
2021/07/30 00:46:15;;;;;;;10.20;5.07;;;18.70;99.90;;;;;;5053187;28;20199;-79
2021/07/30 00:48:42;;;;;;;7.90;4.40;;;18.80;99.90;;;;;;5052113;28;20283;-80
2021/07/30 00:51:08;;;;;;;11.10;4.10;;;18.70;99.90;;;;;;5055989;28;20165;-80
2021/07/30 00:53:34;;;;;;;12.47;4.67;;;18.60;99.90;;;;;;5053078;28;20692;-80
2021/07/30 00:55:59;;;;;;;8.70;4.30;;;18.60;1.00;;;;;;5055634;28;20165;-80
2021/07/30 00:58:29;;;;;;;8.60;4.67;;;18.50;1.00;;;;;;5053368;28;20166;-80
2021/07/30 01:00:56;;;;;;;11.50;4.80;;;18.40;1.00;;;;;;5055311;28;20181;-79
2021/07/30 01:03:21;;;;;;;9.90;4.17;;;18.50;1.00;;;;;;5055985;28;20173;-80
2021/07/30 01:05:48;;;;;;;10.20;4.33;;;18.60;1.00;;;;;;5052987;28;20173;-79
2021/07/30 01:08:15;;;;;;;8.20;4.40;;;18.70;99.90;;;;;;5055648;28;20177;-79
2021/07/30 01:10:40;;;;;;;9.50;4.27;;;18.70;99.90;;;;;;5053709;28;20192;-80
2021/07/30 01:13:06;;;;;;;7.70;3.77;;;18.70;99.90;;;;;;5052736;28;20657;-80
2021/07/30 01:15:32;;;;;;;8.80;4.40;;;18.60;99.90;;;;;;5053943;28;20169;-80
2021/07/30 01:17:58;;;;;;;8.17;4.53;;;18.70;99.90;;;;;;5052946;28;20196;-78
2021/07/30 01:20:26;;;;;;;11.03;4.23;;;18.80;99.90;;;;;;5053080;28;20169;-81
2021/07/30 01:22:56;;;;;;;8.23;4.30;;;18.90;99.90;;;;;;5052828;28;20180;-79
2021/07/30 01:25:23;;;;;;;7.17;4.23;;;18.80;99.90;;;;;;5053136;28;20176;-80
2021/07/30 01:27:50;;;;;;;10.97;4.50;;;18.70;99.90;;;;;;5053089;28;20169;-79
2021/07/30 01:30:18;;;;;;;9.37;4.83;;;18.80;99.90;;;;;;5056218;28;20242;-79
2021/07/30 01:32:44;;;;;;;8.63;4.43;;;18.80;99.90;;;;;;5053854;28;20168;-78
2021/07/30 01:35:10;;;;;;;9.50;4.13;;;18.80;99.90;;;;;;5053444;28;20168;-78
2021/07/30 01:37:36;;;;;;;9.70;4.40;;;18.90;99.90;;;;;;5055869;28;20172;-78
2021/07/30 01:40:03;;;;;;;12.13;4.90;;;19.00;99.90;;;;;;5051501;28;20195;-79
2021/07/30 01:42:29;;;;;;;7.43;4.43;;;18.80;99.90;;;;;;5054213;28;20171;-80
2021/07/30 01:44:55;;;;;;;6.90;4.17;;;18.70;99.90;;;;;;5052078;28;20624;-79
2021/07/30 01:47:21;;;;;;;8.00;4.13;;;18.50;99.90;;;;;;5053134;28;20223;-79
2021/07/30 01:49:48;;;;;;;10.20;4.57;;;18.60;1.00;;;;;;5052813;28;20207;-80
2021/07/30 01:52:14;;;;;;;10.67;4.13;;;18.50;1.00;;;;;;5052572;28;20173;-80
2021/07/30 01:54:40;;;;;;;10.70;4.60;;;18.50;1.00;;;;;;5052729;28;20270;-80
2021/07/30 01:57:06;;;;;;;7.63;4.40;;;18.40;1.00;;;;;;5055369;28;20176;-80
2021/07/30 01:59:31;;;;;;;11.20;5.07;;;18.50;1.00;;;;;;5052733;28;21017;-79
2021/07/30 02:01:57;;;;;;;9.80;5.33;;;18.50;1.00;;;;;;5051289;28;20285;-80
2021/07/30 02:04:23;;;;;;;8.43;4.20;;;18.50;1.00;;;;;;5052642;28;20173;-80
2021/07/30 02:06:49;;;;;;;11.20;4.93;;;18.60;1.00;;;;;;5052851;28;20177;-80
2021/07/30 02:09:15;;;;;;;11.77;4.70;;;18.70;99.90;;;;;;5052559;28;20661;-79
2021/07/30 02:11:50;;;;;;;11.03;4.93;;;18.70;99.90;;;;;;5055910;28;20172;-79
2021/07/30 02:14:16;;;;;;;7.70;4.63;;;18.70;1.00;;;;;;5055984;28;20204;-80
2021/07/30 02:16:50;;;;;;;13.00;5.00;;;18.70;99.90;;;;;;5056449;28;20179;-78
2021/07/30 02:19:17;;;;;;;9.67;4.80;;;18.70;1.00;;;;;;5056555;28;20516;-77
2021/07/30 02:21:43;;;;;;;10.60;4.67;;;18.70;99.90;;;;;;5056557;28;20626;-78
2021/07/30 02:24:09;;;;;;;9.23;5.10;;;18.80;99.90;;;;;;5056501;28;20197;-80
2021/07/30 02:26:35;;;;;;;10.87;4.67;;;18.80;99.90;;;;;;5058874;28;20177;-80
2021/07/30 02:29:02;;;;;;;10.07;4.63;;;18.70;1.00;;;;;;5056430;28;20518;-80
2021/07/30 02:31:28;;;;;;;8.97;4.67;;;18.70;1.00;;;;;;5056477;28;20358;-81
2021/07/30 02:33:54;;;;;;;9.00;4.67;;;18.70;1.00;;;;;;5054803;28;20313;-79
2021/07/30 02:36:19;;;;;;;11.87;5.60;;;18.70;1.00;;;;;;5059335;28;20244;-78
2021/07/30 02:38:45;;;;;;;12.00;4.70;;;18.70;1.00;;;;;;5075839;28;20203;-80
2021/07/30 02:41:11;;;;;;;10.03;4.93;;;18.60;1.00;;;;;;5073454;28;20224;-79
2021/07/30 02:43:37;;;;;;;10.57;4.93;;;18.60;1.00;;;;;;5070644;28;20166;-77
2021/07/30 02:46:03;;;;;;;8.70;5.13;;;18.50;1.00;;;;;;5070689;28;20169;-77
2021/07/30 02:48:28;;;;;;;10.67;5.00;;;18.70;1.00;;;;;;5065778;28;20175;-79
2021/07/30 02:50:54;;;;;;;9.43;4.80;;;18.60;1.00;;;;;;5058992;28;20173;-80
2021/07/30 02:53:19;;;;;;;11.77;4.40;;;18.70;1.00;;;;;;5054905;28;20259;-79
2021/07/30 02:55:46;;;;;;;8.07;4.47;;;18.70;1.00;;;;;;5057897;28;20181;-80
2021/07/30 02:58:15;;;;;;;11.73;4.47;;;18.70;1.00;;;;;;5062883;28;20168;-78
2021/07/30 03:00:44;;;;;;;9.97;4.80;;;18.70;1.00;;;;;;5074468;28;20534;-79
2021/07/30 03:03:09;;;;;;;12.57;4.83;;;18.70;1.00;;;;;;5075451;28;20183;-78
2021/07/30 03:05:35;;;;;;;10.90;4.97;;;18.70;1.00;;;;;;5072133;28;20180;-78
2021/07/30 03:08:01;;;;;;;8.33;5.30;;;18.70;1.00;;;;;;5071741;28;20259;-79
2021/07/30 03:10:26;;;;;;;11.40;5.00;;;18.70;1.00;;;;;;5076091;28;20181;-80
2021/07/30 03:12:52;;;;;;;13.47;5.00;;;18.80;1.00;;;;;;5077178;28;20632;-81
2021/07/30 03:15:18;;;;;;;10.13;4.80;;;18.80;1.00;;;;;;5072143;28;20187;-80
2021/07/30 03:17:44;;;;;;;11.83;5.63;;;18.90;1.00;;;;;;5075339;28;20171;-80
2021/07/30 03:20:10;;;;;;;9.67;4.70;;;18.90;1.00;;;;;;5075066;28;20297;-79
2021/07/30 03:22:36;;;;;;;10.43;5.13;;;18.80;1.00;;;;;;5073374;28;20176;-79
2021/07/30 03:25:02;;;;;;;12.03;5.30;;;18.80;1.00;;;;;;5056799;28;20189;-80
2021/07/30 03:27:28;;;;;;;11.87;5.20;;;18.80;1.00;;;;;;5055060;28;20251;-79
2021/07/30 03:29:53;;;;;;;10.17;4.43;;;18.90;1.00;;;;;;5053744;28;20320;-80
2021/07/30 03:32:19;;;;;;;10.33;5.03;;;18.90;1.00;;;;;;5055018;28;20169;-77
2021/07/30 03:34:46;;;;;;;11.67;5.03;;;18.80;1.00;;;;;;5055336;28;20220;-79
2021/07/30 03:37:12;;;;;;;11.00;4.40;;;19.00;99.90;;;;;;5071721;28;20176;-78
2021/07/30 03:39:38;;;;;;;11.37;5.50;;;18.80;1.00;;;;;;5073981;28;20663;-78
2021/07/30 03:42:04;;;;;;;9.47;4.87;;;18.80;1.00;;;;;;5074614;28;20175;-78
2021/07/30 03:44:30;;;;;;;8.37;4.73;;;18.80;1.00;;;;;;5074162;28;20640;-81
2021/07/30 03:46:56;;;;;;;10.57;5.00;;;18.80;1.00;;;;;;5071217;28;20234;-77
2021/07/30 03:49:22;;;;;;;11.93;4.90;;;18.70;1.00;;;;;;5074289;28;20172;-80
2021/07/30 03:51:47;;;;;;;9.80;5.20;;;18.60;1.00;;;;;;5074441;28;20196;-79
2021/07/30 03:54:13;;;;;;;12.37;5.67;;;18.60;1.00;;;;;;5067885;28;20208;-79
2021/07/30 03:56:41;;;;;;;10.43;4.67;;;18.50;1.00;;;;;;5055151;28;20180;-79
2021/07/30 03:59:07;;;;;;;10.20;4.87;;;18.50;1.00;;;;;;5055774;28;20201;-77
2021/07/30 04:01:33;;;;;;;10.40;4.70;;;18.40;1.00;;;;;;5055470;28;20189;-78
2021/07/30 04:03:59;;;;;;;12.13;5.43;;;18.40;11.00;;;;;;5057232;28;20219;-80
2021/07/30 04:06:24;;;;;;;12.27;5.17;;;18.30;99.90;;;;;;5058210;28;20170;-81
2021/07/30 04:08:50;;;;;;;10.73;4.83;;;18.40;92.00;;;;;;5060929;28;20161;-79
2021/07/30 04:11:15;;;;;;;9.63;5.13;;;18.50;6.50;;;;;;5074708;28;20169;-79
2021/07/30 04:13:41;;;;;;;13.43;5.53;;;18.50;17.00;;;;;;5074886;28;20267;-80
2021/07/30 04:16:07;;;;;;;10.80;5.57;;;18.50;30.90;;;;;;5059894;28;20177;-79
2021/07/30 04:18:36;;;;;;;9.07;5.27;;;18.40;98.40;;;;;;5056644;28;20169;-80
2021/07/30 04:21:05;;;;;;;14.10;5.77;;;18.20;99.90;;;;;;5054980;28;20172;-81
2021/07/30 04:23:31;;;;;;;15.57;5.17;;;18.10;99.90;;;;;;5053701;28;20207;-79
2021/07/30 04:25:57;;;;;;;8.80;5.17;;;18.00;99.90;;;;;;5053720;28;20155;-79
2021/07/30 04:28:23;;;;;;;12.13;4.90;;;18.00;99.90;;;;;;5052172;28;20177;-79
2021/07/30 04:30:48;;;;;;;8.23;5.07;;;18.10;99.90;;;;;;5053480;28;20240;-79
2021/07/30 04:33:14;;;;;;;10.47;5.17;;;18.10;99.90;;;;;;5054942;28;20692;-80
2021/07/30 04:35:40;;;;;;;12.40;5.43;;;18.10;99.90;;;;;;5057035;28;20652;-79
2021/07/30 04:38:06;;;;;;;14.30;5.40;;;17.90;1.00;;;;;;5060741;28;20184;-78
2021/07/30 04:40:33;;;;;;;8.30;4.90;;;17.80;1.00;;;;;;5057935;28;20223;-79
2021/07/30 04:42:58;;;;;;;12.13;4.27;;;17.60;99.90;;;;;;5054689;28;20619;-80
2021/07/30 04:45:25;;;;;;;10.23;4.37;;;17.60;99.90;;;;;;5054643;28;20226;-77
2021/07/30 04:47:52;;;;;;;7.40;3.97;;;17.60;99.90;;;;;;5053600;28;20702;-80
2021/07/30 04:50:18;;;;;;;8.00;4.67;;;17.60;99.90;;;;;;5053569;28;20261;-80
2021/07/30 04:52:44;;;;;;;10.03;4.70;;;17.60;99.90;;;;;;5052145;28;20173;-80
2021/07/30 04:55:10;;;;;;;9.90;4.40;;;17.70;99.90;;;;;;5053219;28;20182;-80
2021/07/30 04:57:36;;;;;;;7.87;4.10;;;17.70;99.90;;;;;;5051986;28;20181;-79
2021/07/30 05:00:03;;;;;;;7.77;4.20;;;17.80;99.90;;;;;;5053020;28;20251;-79
2021/07/30 05:02:29;;;;;;;9.00;4.50;;;17.90;1.00;;;;;;5051903;28;20181;-80
2021/07/30 05:04:55;;;;;;;11.10;4.50;;;17.80;1.00;;;;;;5053176;28;20226;-81
2021/07/30 05:07:24;;;;;;;9.00;4.37;;;17.80;1.00;;;;;;5051745;28;20208;-79
2021/07/30 05:09:50;;;;;;;6.67;4.07;;;17.80;1.00;;;;;;5053621;28;20172;-80
2021/07/30 05:12:16;;;;;;;10.10;4.30;;;17.80;1.00;;;;;;5054489;28;20176;-79
2021/07/30 05:14:42;;;;;;;8.17;4.00;;;18.00;1.00;;;;;;5070434;28;20205;-81
2021/07/30 05:17:08;;;;;;;7.57;3.77;;;18.00;1.00;;;;;;5076220;28;20201;-77
2021/07/30 05:19:34;;;;;;;8.80;4.33;;;18.00;1.00;;;;;;5070550;28;20210;-80
2021/07/30 05:21:59;;;;;;;7.70;3.60;;;18.10;1.00;;;;;;5052145;28;20212;-81
2021/07/30 05:24:25;;;;;;;9.10;3.77;;;18.10;1.00;;;;;;5053109;28;20556;-80
2021/07/30 05:26:51;;;;;;;9.67;3.80;;;18.20;99.90;;;;;;5061079;28;20585;-80
2021/07/30 05:29:16;;;;;;;6.87;3.30;;;18.20;99.90;;;;;;5061082;28;20181;-81
2021/07/30 05:31:47;;;;;;;8.77;3.60;;;18.10;99.90;;;;;;5055125;28;20181;-80
2021/07/30 05:34:13;;;;;;;7.30;3.57;;;18.20;99.90;;;;;;5051415;28;20254;-80
2021/07/30 05:36:41;;;;;;;7.90;3.57;;;18.10;99.90;;;;;;5052882;28;20173;-79
2021/07/30 05:39:06;;;;;;;6.93;2.80;;;18.20;99.90;;;;;;5051767;28;20205;-80
2021/07/30 05:41:32;;;;;;;9.27;3.67;;;18.20;99.90;;;;;;5051478;28;20173;-80
2021/07/30 05:43:57;;;;;;;7.80;2.90;;;18.30;99.90;;;;;;5051747;28;20621;-79
2021/07/30 05:46:23;;;;;;;11.80;3.60;;;18.40;99.90;;;;;;5058616;28;20186;-81
2021/07/30 05:48:52;;;;;;;7.20;3.13;;;18.40;99.90;;;;;;5069289;28;20184;-80
2021/07/30 05:51:18;;;;;;;6.97;3.23;;;18.50;75.60;;;;;;5074111;28;20176;-79
2021/07/30 05:53:43;;;;;;;6.53;3.33;;;18.50;10.30;;;;;;5075459;28;20208;-79
2021/07/30 05:56:09;;;;;;;6.60;3.10;;;18.50;38.40;;;;;;5075825;28;20183;-80
2021/07/30 05:58:35;;;;;;;7.40;3.30;;;18.40;1.00;;;;;;5069867;28;20299;-79
2021/07/30 06:01:01;;;;;;;6.00;3.33;;;18.50;26.80;;;;;;5063946;28;20177;-79
2021/07/30 06:03:27;;;;;;;6.97;3.10;;;18.40;45.50;;;;;;5061600;28;20200;-81
2021/07/30 06:05:52;;;;;;;6.03;2.97;;;18.40;20.20;;;;;;5068125;28;20184;-79
2021/07/30 06:08:18;;;;;;;7.40;3.30;;;18.40;62.80;;;;;;5060953;28;20189;-79
2021/07/30 06:10:44;;;;;;;6.00;3.03;;;18.40;39.60;;;;;;5065706;28;20180;-79
2021/07/30 06:13:09;;;;;;;5.77;3.00;;;18.40;35.50;;;;;;5063626;28;20695;-78
2021/07/30 06:15:35;;;;;;;8.50;3.67;;;18.50;74.20;;;;;;5066485;28;20274;-79
2021/07/30 06:18:03;;;;;;;7.93;3.40;;;18.60;6.30;;;;;;5070032;28;20200;-79
2021/07/30 06:20:30;;;;;;;7.27;3.00;;;18.70;1.00;;;;;;5064837;28;20172;-79
2021/07/30 06:22:56;;;;;;;5.13;2.70;;;18.80;1.00;;;;;;5065598;28;20649;-80
2021/07/30 06:25:21;;;;;;;6.23;2.90;;;18.80;1.00;;;;;;5067945;28;20177;-79
2021/07/30 06:27:47;;;;;;;6.40;3.00;;;18.90;1.00;;;;;;5064219;28;20183;-79
2021/07/30 06:30:13;;;;;;;7.73;2.80;;;19.00;1.00;;;;;;5055162;28;20551;-80
2021/07/30 06:32:39;;;;;;;6.63;2.97;;;19.10;1.00;;;;;;5053767;28;20180;-80
2021/07/30 06:35:06;;;;;;;7.53;2.90;;;19.20;1.00;;;;;;5062090;28;20243;-79
2021/07/30 06:37:33;;;;;;;5.23;2.90;;;19.30;99.90;;;;;;5065353;28;20180;-78
2021/07/30 06:39:59;;;;;;;6.27;2.97;;;19.40;99.90;;;;;;5063694;28;20210;-78
2021/07/30 06:42:24;;;;;;;6.50;2.77;;;19.40;99.90;;;;;;5071586;28;20215;-79
2021/07/30 06:44:50;;;;;;;7.47;3.23;;;19.40;99.90;;;;;;5066580;28;20735;-82
2021/07/30 06:47:18;;;;;;;7.90;2.93;;;19.40;1.00;;;;;;5058501;28;20192;-81
2021/07/30 06:49:44;;;;;;;7.83;2.77;;;19.50;99.90;;;;;;5074163;28;20542;-81
2021/07/30 06:52:10;;;;;;;4.40;2.47;;;19.50;99.90;;;;;;5063409;28;20180;-81
2021/07/30 06:54:36;;;;;;;7.07;3.10;;;19.60;99.90;;;;;;5070845;28;20212;-80
2021/07/30 06:57:02;;;;;;;8.37;2.80;;;19.60;99.90;;;;;;5066099;28;20477;-82
2021/07/30 06:59:28;;;;;;;12.33;3.50;;;19.60;99.90;;;;;;5063674;28;20173;-79
2021/07/30 07:01:54;;;;;;;6.00;3.00;;;19.70;99.90;;;;;;5067179;28;20193;-81
2021/07/30 07:04:19;;;;;;;5.43;2.63;;;19.80;99.90;;;;;;5068158;28;20267;-80
2021/07/30 07:06:47;;;;;;;6.07;2.73;;;20.00;99.90;;;;;;5056598;28;20268;-80
2021/07/30 07:09:14;;;;;;;5.13;2.63;;;20.10;99.90;;;;;;5058739;28;20646;-80
2021/07/30 07:11:40;;;;;;;6.47;2.77;;;20.30;99.90;;;;;;5071042;28;20184;-81
2021/07/30 07:14:05;;;;;;;4.33;2.50;;;20.30;99.90;;;;;;5065819;28;20196;-79
2021/07/30 07:16:31;;;;;;;8.40;2.73;;;20.30;99.90;;;;;;5066251;28;20628;-80
2021/07/30 07:18:58;;;;;;;6.40;2.70;;;20.30;99.90;;;;;;5066527;28;20656;-83
2021/07/30 07:21:24;;;;;;;6.03;3.07;;;20.30;99.90;;;;;;5057988;28;20223;-80
2021/07/30 07:23:51;;;;;;;7.57;3.00;;;20.20;99.90;;;;;;5055937;28;20201;-80
2021/07/30 07:26:17;;;;;;;6.90;2.50;;;20.20;99.90;;;;;;5063230;28;20171;-79
2021/07/30 07:28:43;;;;;;;6.70;2.60;;;20.40;99.90;;;;;;5066116;28;20258;-80
2021/07/30 07:31:09;;;;;;;6.33;2.40;;;20.50;99.90;;;;;;5084423;28;20178;-81
2021/07/30 07:33:34;;;;;;;4.30;2.13;;;20.60;99.90;;;;;;5090399;28;20225;-81
2021/07/30 07:36:00;;;;;;;5.50;2.90;;;20.60;99.90;;;;;;5090595;28;20234;-79
2021/07/30 07:38:26;;;;;;;5.27;2.73;;;20.70;99.60;;;;;;5072806;28;20638;-79
2021/07/30 07:40:52;;;;;;;4.23;2.70;;;20.70;86.90;;;;;;5071555;28;20222;-78
2021/07/30 07:43:18;;;;;;;6.07;2.80;;;20.80;58.90;;;;;;5077223;28;20176;-80
2021/07/30 07:45:44;;;;;;;6.57;2.80;;;20.90;35.60;;;;;;5073272;28;20601;-80
2021/07/30 07:48:10;;;;;;;4.30;2.73;;;20.90;32.50;;;;;;5056053;28;20250;-79
2021/07/30 07:50:36;;;;;;;4.97;2.70;;;21.00;17.80;;;;;;5087459;28;20530;-80
2021/07/30 07:53:01;;;;;;;7.63;3.13;;;21.20;1.00;;;;;;5093751;28;20182;-77
2021/07/30 07:55:27;;;;;;;6.70;2.83;;;21.30;1.00;;;;;;5068943;28;20397;-79
2021/07/30 07:57:53;;;;;;;3.73;2.37;;;21.50;1.00;;;;;;5069672;28;20190;-81
2021/07/30 08:00:18;;;;;;;4.40;2.37;;;21.50;1.00;;;;;;5069777;28;20220;-80
2021/07/30 08:02:44;;;;;;;6.50;2.80;;;21.40;1.00;;;;;;5063815;28;20224;-79
2021/07/30 08:05:10;;;;;;;5.57;2.73;;;21.50;1.00;;;;;;5057008;28;20173;-79
2021/07/30 08:07:36;;;;;;;8.57;3.00;;;21.60;1.00;;;;;;5072363;28;20260;-79
2021/07/30 08:10:02;;;;;;;5.73;2.70;;;21.80;1.00;;;;;;5068948;28;20633;-79
2021/07/30 08:12:28;;;;;;;3.97;2.37;;;21.80;1.00;;;;;;5068782;28;20194;-80
2021/07/30 08:14:54;;;;;;;6.23;2.63;;;21.80;1.00;;;;;;5086626;28;20294;-80
2021/07/30 08:17:19;;;;;;;7.20;3.00;;;21.80;1.00;;;;;;5062802;28;20234;-80
2021/07/30 08:19:50;;;;;;;3.50;2.60;;;22.00;1.00;;;;;;5073674;28;20681;-79
2021/07/30 08:22:16;;;;;;;5.77;3.30;;;22.00;1.00;;;;;;5075925;28;20164;-78
2021/07/30 08:24:42;;;;;;;5.93;3.07;;;22.00;1.00;;;;;;5085238;28;20680;-78
2021/07/30 08:27:10;;;;;;;7.43;2.80;;;22.00;1.00;;;;;;5078046;28;20215;-80
2021/07/30 08:29:35;;;;;;;4.30;2.40;;;22.20;1.00;;;;;;5070069;28;20178;-80
2021/07/30 08:32:01;;;;;;;4.97;2.70;;;22.20;1.00;;;;;;5082679;28;20200;-78
2021/07/30 08:34:27;;;;;;;5.50;2.73;;;22.20;1.00;;;;;;5081862;28;20277;-79
2021/07/30 08:36:53;;;;;;;6.23;2.80;;;22.40;1.00;;;;;;5087290;28;20172;-78
2021/07/30 08:39:18;;;;;;;5.07;2.73;;;22.40;1.00;;;;;;5087426;28;20247;-77
2021/07/30 08:41:50;;;;;;;6.13;2.83;;;22.50;1.00;;;;;;5076067;28;20555;-80
2021/07/30 08:44:16;;;;;;;4.33;2.37;;;22.60;1.00;;;;;;5073641;28;20167;-78
2021/07/30 08:46:43;;;;;;;6.27;2.60;;;22.50;1.00;;;;;;5057039;28;20176;-78
2021/07/30 08:49:10;;;;;;;5.47;2.73;;;22.60;1.00;;;;;;5063179;28;20630;-79
2021/07/30 08:51:41;;;;;;;5.90;3.20;;;22.60;1.00;;;;;;5094023;28;20632;-79
2021/07/30 08:54:07;;;;;;;5.50;2.87;;;22.50;1.00;;;;;;5093521;28;20241;-79
2021/07/30 08:56:36;;;;;;;7.40;2.93;;;22.50;1.00;;;;;;5093226;28;20172;-79
2021/07/30 08:59:02;;;;;;;5.67;2.70;;;22.50;1.00;;;;;;5087703;28;20174;-80
2021/07/30 09:01:28;;;;;;;6.20;3.00;;;22.70;1.00;;;;;;5051550;28;20176;-78
2021/07/30 09:03:53;;;;;;;6.30;4.00;;;22.70;1.00;;;;;;5049017;28;20176;-79
2021/07/30 09:06:21;;;;;;;6.00;2.93;;;22.80;1.00;;;;;;5052365;28;20178;-79
2021/07/30 09:09:02;;;;;;;6.10;3.10;;;22.90;1.00;;;;;;5052499;28;20184;-79
2021/07/30 09:11:33;;;;;;;7.73;3.47;;;23.00;1.00;;;;;;5051932;28;20173;-81
2021/07/30 09:14:09;;;;;;;7.63;3.33;;;23.10;1.00;;;;;;5052135;28;20200;-79
2021/07/30 09:16:52;;;;;;;7.23;2.90;;;23.20;1.00;;;;;;5057048;28;20667;-78
2021/07/30 09:19:18;;;;;;;5.37;3.10;;;23.30;1.00;;;;;;5053329;28;20185;-78
2021/07/30 09:21:44;;;;;;;5.77;3.40;;;23.30;1.00;;;;;;5054960;28;20209;-78
2021/07/30 09:24:13;;;;;;;4.37;2.80;;;23.30;1.00;;;;;;5052122;28;20300;-81
2021/07/30 09:26:57;;;;;;;5.50;3.30;;;23.40;1.00;;;;;;5066446;28;20181;-79
2021/07/30 09:29:27;;;;;;;6.40;3.07;;;23.40;1.00;;;;;;5057134;28;20183;-78
2021/07/30 09:32:08;;;;;;;4.43;2.97;;;23.60;1.00;;;;;;5069097;28;20261;-80
2021/07/30 09:34:43;;;;;;;8.87;3.27;;;23.70;1.00;;;;;;5057347;28;20236;-79
2021/07/30 09:37:10;;;;;;;7.23;3.30;;;23.50;1.00;;;;;;5081249;28;20173;-80
2021/07/30 09:39:39;;;;;;;7.03;3.63;;;23.20;1.00;;;;;;5081559;28;20185;-82
2021/07/30 09:42:13;;;;;;;4.83;2.50;;;23.30;1.00;;;;;;5070730;28;20208;-82
2021/07/30 09:44:48;;;;;;;6.00;3.33;;;23.30;1.00;;;;;;5088225;28;20185;-81
2021/07/30 09:47:33;;;;;;;5.90;2.80;;;23.30;1.00;;;;;;5050206;28;20178;-78
2021/07/30 09:50:01;;;;;;;6.27;3.50;;;23.50;1.00;;;;;;5075305;28;20188;-80
2021/07/30 09:52:39;;;;;;;6.00;3.37;;;23.30;1.00;;;;;;5089268;28;20179;-82
2021/07/30 09:55:10;;;;;;;5.50;3.10;;;23.20;1.00;;;;;;5052338;28;20229;-82
2021/07/30 09:57:38;;;;;;;5.43;2.90;;;23.30;1.00;;;;;;5052191;28;20171;-80
2021/07/30 10:00:08;;;;;;;5.37;2.50;;;23.30;1.00;;;;;;5057717;28;20181;-84
2021/07/30 10:02:35;;;;;;;7.20;2.80;;;23.10;1.00;;;;;;5073433;28;20201;-82
2021/07/30 10:05:03;;;;;;;4.10;2.90;;;23.00;1.00;;;;;;5068921;28;20170;-78
2021/07/30 10:07:30;;;;;;;5.67;2.63;;;23.00;1.00;;;;;;5062032;28;20185;-79
2021/07/30 10:10:26;;;;;;;7.83;3.20;;;23.00;1.00;;;;;;5073189;28;20200;-78
2021/07/30 10:12:53;;;;;;;3.87;2.87;;;23.00;1.00;;;;;;5068450;28;20202;-80
2021/07/30 10:15:19;;;;;;;5.77;3.50;;;23.20;1.00;;;;;;5064743;28;20715;-79
2021/07/30 10:17:47;;;;;;;6.37;3.23;;;23.40;1.00;;;;;;5071506;28;20193;-80
2021/07/30 10:20:15;;;;;;;6.47;3.33;;;23.50;1.00;;;;;;5069275;28;20171;-79
2021/07/30 10:22:58;;;;;;;5.30;3.30;;;23.50;1.00;;;;;;5051676;28;20233;-79
2021/07/30 10:25:27;;;;;;;6.73;3.10;;;23.40;1.00;;;;;;5051063;28;20174;-79
2021/07/30 10:27:58;;;;;;;5.70;2.90;;;23.30;1.00;;;;;;5051171;28;20261;-78
2021/07/30 10:30:25;;;;;;;5.27;3.00;;;23.30;1.00;;;;;;5052074;28;20165;-81
2021/07/30 10:32:59;;;;;;;4.87;2.97;;;23.20;1.00;;;;;;5051158;28;20182;-82
2021/07/30 10:35:28;;;;;;;10.00;3.17;;;23.30;1.00;;;;;;5058978;28;20174;-81
2021/07/30 10:38:17;;;;;;;4.83;3.23;;;23.20;1.00;;;;;;5055050;28;20183;-81
2021/07/30 10:41:03;;;;;;;4.77;2.93;;;23.20;1.00;;;;;;5055838;28;20265;-79
2021/07/30 10:43:33;;;;;;;5.50;3.07;;;23.20;1.00;;;;;;5056016;28;20196;-79
2021/07/30 10:46:11;;;;;;;4.90;2.93;;;23.30;1.00;;;;;;5056977;28;20178;-80
2021/07/30 10:48:39;;;;;;;7.10;3.10;;;23.50;1.00;;;;;;5055521;28;20170;-79
2021/07/30 10:51:31;;;;;;;5.33;2.90;;;23.70;1.00;;;;;;5096300;28;20248;-78
2021/07/30 10:54:01;;;;;;;4.47;2.70;;;23.70;1.00;;;;;;5094557;28;20244;-78
2021/07/30 10:56:30;;;;;;;4.37;2.43;;;23.80;1.00;;;;;;5094902;28;20649;-82
2021/07/30 10:58:56;;;;;;;6.47;3.00;;;23.80;1.00;;;;;;5094801;28;20207;-79
2021/07/30 11:01:23;;;;;;;5.37;3.37;;;23.70;1.00;;;;;;5094309;28;20181;-79
2021/07/30 11:03:51;;;;;;;5.70;3.10;;;23.80;1.00;;;;;;5094596;28;20187;-79
2021/07/30 11:06:24;;;;;;;4.80;3.00;;;23.90;1.00;;;;;;5094867;28;20638;-78
2021/07/30 11:08:59;;;;;;;5.63;3.00;;;23.90;1.00;;;;;;5094415;28;20181;-80
2021/07/30 11:11:45;;;;;;;4.63;2.90;;;23.70;1.00;;;;;;5094487;28;20234;-81
2021/07/30 11:14:15;;;;;;;5.47;3.07;;;23.60;1.00;;;;;;5094296;28;20205;-80
2021/07/30 11:16:41;;;;;;;4.00;2.77;;;23.50;1.00;;;;;;5062330;28;20252;-77
2021/07/30 11:19:08;;;;;;;4.67;3.27;;;23.40;1.00;;;;;;5053651;28;20197;-77
2021/07/30 11:21:34;;;;;;;3.47;2.37;;;23.40;1.00;;;;;;5069049;28;20174;-86
2021/07/30 11:24:02;;;;;;;4.07;2.90;;;23.40;1.00;;;;;;5064814;28;20202;-83
2021/07/30 11:26:35;;;;;;;4.93;2.80;;;23.50;1.00;;;;;;5054439;28;20174;-80
2021/07/30 11:29:12;;;;;;;6.43;3.00;;;23.50;1.00;;;;;;5054396;28;20188;-82
2021/07/30 11:31:57;;;;;;;6.33;3.33;;;23.60;1.00;;;;;;5053913;28;20245;-78
2021/07/30 11:34:34;;;;;;;5.70;3.50;;;23.40;1.00;;;;;;5065909;28;20644;-79
2021/07/30 11:37:02;;;;;;;8.50;3.60;;;23.70;1.00;;;;;;5053808;28;20176;-79
2021/07/30 11:39:49;;;;;;;5.00;3.07;;;23.50;1.00;;;;;;5055149;28;20213;-79
2021/07/30 11:42:30;;;;;;;5.10;3.30;;;23.30;1.00;;;;;;5061461;28;20211;-83
2021/07/30 11:45:00;;;;;;;6.03;3.23;;;23.20;1.00;;;;;;5052933;28;20193;-85
2021/07/30 11:47:28;;;;;;;5.73;3.70;;;23.20;1.00;;;;;;5065898;28;20257;-81
2021/07/30 11:50:03;;;;;;;6.33;3.30;;;23.10;1.00;;;;;;5061786;28;20180;-79
2021/07/30 11:52:30;;;;;;;8.63;3.60;;;23.00;1.00;;;;;;5072161;28;20645;-78
2021/07/30 11:55:21;;;;;;;4.93;2.80;;;22.80;1.00;;;;;;5071298;28;20209;-77
2021/07/30 11:57:48;;;;;;;4.87;3.07;;;22.50;1.00;;;;;;5072265;28;21350;-81
2021/07/30 12:00:27;;;;;;;4.63;3.33;;;22.20;1.00;;;;;;5072123;28;20181;-77
2021/07/30 12:02:53;;;;;;;5.80;3.27;;;21.90;63.40;;;;;;5072516;28;20168;-77
2021/07/30 12:05:37;;;;;;;5.77;2.87;;;22.10;90.80;;;;;;5060654;28;20725;-79
2021/07/30 12:08:03;;;;;;;8.93;3.03;;;22.00;66.50;;;;;;5054171;28;20180;-78
2021/07/30 12:10:30;;;;;;;5.67;3.30;;;21.90;99.90;;;;;;5052978;28;20206;-79
2021/07/30 12:12:58;;;;;;;5.67;3.70;;;21.90;99.90;;;;;;5062132;28;20164;-77
2021/07/30 12:15:25;;;;;;;6.33;3.70;;;21.90;99.90;;;;;;5074313;28;20214;-78
2021/07/30 12:18:02;;;;;;;5.77;3.40;;;22.00;99.90;;;;;;5068754;28;20176;-76
2021/07/30 12:20:39;;;;;;;5.70;3.57;;;22.00;99.90;;;;;;5063616;28;20550;-76
2021/07/30 12:23:09;;;;;;;4.80;3.60;;;21.80;99.90;;;;;;5065180;28;20199;-77
2021/07/30 12:25:45;;;;;;;7.17;3.93;;;21.60;99.90;;;;;;5066059;28;20177;-76
2021/07/30 12:28:13;;;;;;;4.60;3.40;;;21.60;99.90;;;;;;5055579;28;20199;-79
2021/07/30 12:30:40;;;;;;;7.30;3.90;;;21.60;99.90;;;;;;5065121;28;20607;-78
2021/07/30 12:33:26;;;;;;;4.73;3.70;;;21.40;1.00;;;;;;5059304;28;20172;-77
2021/07/30 12:36:08;;;;;;;5.13;3.73;;;21.10;60.60;;;;;;5062421;28;20179;-79
2021/07/30 12:39:01;;;;;;;6.13;3.87;;;20.90;99.90;;;;;;5057051;28;20246;-76
2021/07/30 12:41:29;;;;;;;6.40;3.90;;;20.70;1.00;;;;;;5065172;28;20190;-77
2021/07/30 12:44:07;;;;;;;7.40;4.60;;;20.40;1.00;;;;;;5084954;28;20178;-77
2021/07/30 12:46:43;;;;;;;5.07;4.47;;;20.20;1.00;;;;;;5068616;28;20256;-77
2021/07/30 12:49:11;;;;;;;6.97;4.93;;;20.20;4.10;;;;;;5054614;28;20587;-78
2021/07/30 12:51:39;;;;;;;5.40;4.10;;;20.30;99.90;;;;;;5060920;28;20206;-77
2021/07/30 12:54:15;;;;;;;9.27;4.80;;;20.40;5.00;;;;;;5070833;28;20210;-76
2021/07/30 12:56:53;;;;;;;7.07;5.10;;;20.50;1.00;;;;;;5057298;28;20204;-77